createdAt,value
2023-02-11T00:00:42.733Z,70.40
2023-02-11T00:03:10.008Z,70.30
2023-02-11T00:05:37.170Z,70.20
2023-02-11T00:08:04.118Z,70.10
2023-02-11T00:10:30.911Z,70.10
2023-02-11T00:12:57.698Z,70.20
2023-02-11T00:15:24.552Z,70.30
2023-02-11T00:17:51.389Z,70.30
2023-02-11T00:20:18.331Z,70.20
2023-02-11T00:22:45.357Z,70.30
2023-02-11T00:25:12.167Z,70.30
2023-02-11T00:27:39.043Z,70.30
2023-02-11T00:30:06.518Z,70.30
2023-02-11T00:32:33.413Z,70.30
2023-02-11T00:35:00.241Z,70.20
2023-02-11T00:37:27.196Z,70.10
2023-02-11T00:39:54.102Z,70.10
2023-02-11T00:42:21.090Z,70.10
2023-02-11T00:44:47.881Z,70.10
2023-02-11T00:47:14.694Z,70.10
2023-02-11T00:49:41.501Z,70.20
2023-02-11T00:52:08.353Z,70.20
2023-02-11T00:54:35.444Z,70.20
2023-02-11T00:57:02.256Z,70.20
2023-02-11T00:59:29.166Z,70.10
2023-02-11T01:01:56.308Z,70.10
2023-02-11T01:04:23.222Z,70.10
2023-02-11T01:06:50.177Z,70.00
2023-02-11T01:09:17.148Z,70.00
2023-02-11T01:11:44.316Z,70.00
2023-02-11T01:14:11.271Z,70.50
2023-02-11T01:16:38.201Z,70.10
2023-02-11T01:19:05.043Z,70.10
2023-02-11T01:21:31.877Z,70.10
2023-02-11T01:23:59.075Z,70.10
2023-02-11T01:26:26.108Z,70.20
2023-02-11T01:28:52.952Z,70.20
2023-02-11T01:31:19.850Z,70.20
2023-02-11T01:33:46.724Z,70.20
2023-02-11T01:36:13.600Z,70.30
2023-02-11T01:38:41.105Z,70.40
2023-02-11T01:41:11.944Z,70.30
2023-02-11T01:43:45.628Z,70.30
2023-02-11T01:46:38.739Z,67.50
2023-02-11T01:49:14.730Z,67.80
2023-02-11T01:51:53.524Z,69.90
2023-02-11T01:54:44.891Z,69.20
2023-02-11T01:57:22.373Z,70.40
2023-02-11T02:00:10.976Z,70.50
2023-02-11T02:02:50.718Z,70.60
2023-02-11T02:05:49.981Z,69.80
2023-02-11T02:08:43.834Z,70.30
2023-02-11T02:11:11.484Z,68.40
2023-02-11T02:13:38.923Z,70.50
2023-02-11T02:16:16.704Z,70.40
2023-02-11T02:19:41.682Z,70.30
2023-02-11T02:22:59.946Z,69.30
2023-02-11T02:26:23.216Z,69.70
2023-02-11T02:29:01.916Z,68.30
2023-02-11T02:32:12.685Z,70.30
2023-02-11T02:35:11.700Z,68.90
2023-02-11T02:37:42.179Z,68.10
2023-02-11T02:40:23.681Z,70.10
2023-02-11T02:42:52.619Z,69.70
2023-02-11T02:45:20.437Z,70.40
2023-02-11T02:47:47.311Z,70.40
2023-02-11T02:50:19.562Z,70.40
2023-02-11T02:53:19.485Z,70.20
2023-02-11T02:56:24.503Z,68.40
2023-02-11T02:59:55.016Z,69.70
2023-02-11T03:02:41.234Z,69.40
2023-02-11T03:05:25.570Z,70.20
2023-02-11T03:08:01.352Z,69.50
2023-02-11T03:10:32.876Z,70.20
2023-02-11T03:13:02.822Z,70.50
2023-02-11T03:15:37.566Z,70.50
2023-02-11T03:18:09.682Z,70.50
2023-02-11T03:20:40.551Z,70.60
2023-02-11T03:23:21.168Z,70.60
2023-02-11T03:25:57.736Z,69.80
2023-02-11T03:28:32.593Z,67.70
2023-02-11T03:31:25.510Z,70.80
2023-02-11T03:34:08.648Z,69.20
2023-02-11T03:36:47.243Z,70.80
2023-02-11T03:39:25.340Z,70.80
2023-02-11T03:41:55.519Z,70.50
2023-02-11T03:44:26.440Z,70.80
2023-02-11T03:46:55.913Z,70.80
2023-02-11T03:49:26.807Z,70.90
2023-02-11T03:51:57.688Z,70.90
2023-02-11T03:54:30.520Z,71.00
2023-02-11T03:57:01.098Z,70.70
2023-02-11T03:59:29.007Z,70.90
2023-02-11T04:01:59.643Z,70.80
2023-02-11T04:04:26.409Z,70.70
2023-02-11T04:06:53.276Z,67.60
2023-02-11T04:09:20.148Z,70.70
2023-02-11T04:11:46.981Z,70.60
2023-02-11T04:14:13.780Z,70.70
2023-02-11T04:16:40.680Z,70.60
2023-02-11T04:19:07.942Z,70.50
2023-02-11T04:21:34.797Z,70.60
2023-02-11T04:24:01.611Z,70.50
2023-02-11T04:26:28.432Z,70.50
2023-02-11T04:28:55.246Z,70.60
2023-02-11T04:31:25.121Z,70.60
2023-02-11T04:33:52.056Z,70.50
2023-02-11T04:36:18.888Z,70.50
2023-02-11T04:38:45.699Z,70.50
2023-02-11T04:41:12.589Z,70.50
2023-02-11T04:43:39.546Z,70.40
2023-02-11T04:46:06.466Z,70.40
2023-02-11T04:48:34.848Z,70.50
2023-02-11T04:51:02.447Z,70.40
2023-02-11T04:53:29.264Z,70.40
2023-02-11T04:55:56.088Z,70.40
2023-02-11T04:58:22.907Z,70.30
2023-02-11T05:00:50.173Z,70.20
2023-02-11T05:03:17.441Z,70.10
2023-02-11T05:05:44.434Z,70.00
2023-02-11T05:08:12.838Z,70.00
2023-02-11T05:10:39.910Z,69.90
2023-02-11T05:13:06.749Z,69.70
2023-02-11T05:15:33.549Z,69.70
2023-02-11T05:18:00.356Z,69.80
2023-02-11T05:20:27.161Z,69.80
2023-02-11T05:22:54.029Z,70.00
2023-02-11T05:25:21.112Z,70.10
2023-02-11T05:27:47.958Z,70.30
2023-02-11T05:30:15.111Z,70.50
2023-02-11T05:32:42.055Z,70.70
2023-02-11T05:35:09.499Z,70.80
2023-02-11T05:37:36.642Z,70.80
2023-02-11T05:40:04.208Z,70.80
2023-02-11T05:42:31.103Z,70.70
2023-02-11T05:44:57.949Z,70.70
2023-02-11T05:47:25.141Z,70.50
2023-02-11T05:49:53.581Z,70.30
2023-02-11T05:52:22.645Z,70.30
2023-02-11T05:54:49.664Z,70.00
2023-02-11T05:57:17.025Z,70.00
2023-02-11T05:59:43.949Z,70.00
2023-02-11T06:02:11.352Z,70.00
2023-02-11T06:04:38.657Z,70.70
2023-02-11T06:07:05.541Z,70.20
2023-02-11T06:09:32.408Z,70.20
2023-02-11T06:11:59.264Z,70.30
2023-02-11T06:14:26.076Z,70.30
2023-02-11T06:16:52.887Z,70.40
2023-02-11T06:19:19.664Z,70.30
2023-02-11T06:21:46.575Z,70.30
2023-02-11T06:24:13.415Z,70.30
2023-02-11T06:26:40.203Z,70.30
2023-02-11T06:29:07.146Z,70.20
2023-02-11T06:31:34.172Z,70.30
2023-02-11T06:34:01.327Z,70.20
2023-02-11T06:36:28.220Z,70.40
2023-02-11T06:38:55.622Z,70.10
2023-02-11T06:41:23.066Z,70.10
2023-02-11T06:43:50.102Z,70.10
2023-02-11T06:46:16.952Z,70.10
2023-02-11T06:48:44.973Z,70.10
2023-02-11T06:51:14.267Z,70.10
2023-02-11T06:53:44.907Z,70.00
2023-02-11T06:56:19.993Z,69.80
2023-02-11T06:58:47.808Z,69.80
2023-02-11T07:01:16.710Z,69.90
2023-02-11T07:03:45.763Z,69.70
2023-02-11T07:06:17.263Z,70.00
2023-02-11T07:08:45.912Z,69.80
2023-02-11T07:11:16.987Z,70.10
2023-02-11T07:13:44.106Z,69.90
2023-02-11T07:16:16.717Z,70.00
2023-02-11T07:18:44.517Z,69.70
2023-02-11T07:21:14.900Z,69.90
2023-02-11T07:23:42.566Z,69.60
2023-02-11T07:26:14.369Z,69.70
2023-02-11T07:28:42.284Z,69.40
2023-02-11T07:31:28.129Z,69.60
2023-02-11T07:33:59.949Z,66.80
2023-02-11T07:36:29.941Z,69.30
2023-02-11T07:38:56.936Z,69.20
2023-02-11T07:41:25.571Z,69.30
2023-02-11T07:43:53.041Z,69.20
2023-02-11T07:46:24.525Z,69.30
2023-02-11T07:48:52.015Z,69.10
2023-02-11T07:51:26.391Z,69.40
2023-02-11T07:53:55.327Z,68.50
2023-02-11T07:56:23.496Z,69.60
2023-02-11T07:58:51.768Z,69.60
2023-02-11T08:01:27.156Z,69.50
2023-02-11T08:03:56.319Z,69.30
2023-02-11T08:06:26.071Z,69.40
2023-02-11T08:08:53.228Z,69.40
2023-02-11T08:11:26.582Z,69.40
2023-02-11T08:13:55.490Z,68.60
2023-02-11T08:16:32.722Z,69.40
2023-02-11T08:19:06.242Z,69.30
2023-02-11T08:21:33.396Z,69.10
2023-02-11T08:24:03.392Z,69.30
2023-02-11T08:26:34.702Z,69.30
2023-02-11T08:29:06.375Z,69.40
2023-02-11T08:31:37.395Z,69.40
2023-02-11T08:34:04.598Z,69.30
2023-02-11T08:36:36.201Z,69.30
2023-02-11T08:39:18.640Z,68.80
2023-02-11T08:41:49.291Z,68.70
2023-02-11T08:44:18.058Z,68.90
2023-02-11T08:46:44.995Z,68.80
2023-02-11T08:49:12.064Z,68.60
2023-02-11T08:51:38.875Z,68.30
2023-02-11T08:54:09.451Z,68.10
2023-02-11T08:56:38.724Z,67.80
2023-02-11T08:59:06.452Z,67.50
2023-02-11T09:01:33.980Z,67.40
2023-02-11T09:04:01.107Z,67.00
2023-02-11T09:06:29.135Z,66.90
2023-02-11T09:08:58.264Z,66.80
2023-02-11T09:11:33.351Z,66.60
2023-02-11T09:14:01.961Z,65.50
2023-02-11T09:16:32.456Z,67.10
2023-02-11T09:19:01.767Z,67.10
2023-02-11T09:21:29.951Z,67.20
2023-02-11T09:23:57.307Z,67.20
2023-02-11T09:26:31.339Z,67.20
2023-02-11T09:28:59.329Z,65.50
2023-02-11T09:31:30.581Z,66.80
2023-02-11T09:34:02.688Z,66.70
2023-02-11T09:36:33.739Z,66.50
2023-02-11T09:39:02.834Z,66.50
2023-02-11T09:41:48.385Z,66.60
2023-02-11T09:44:27.522Z,64.00
2023-02-11T09:47:18.245Z,64.50
2023-02-11T09:49:51.714Z,65.00
2023-02-11T09:52:58.598Z,66.40
2023-02-11T09:55:43.121Z,61.80
2023-02-11T09:58:26.377Z,66.90
2023-02-11T10:01:12.997Z,65.30
2023-02-11T10:04:22.196Z,64.40
2023-02-11T10:07:15.449Z,63.10
2023-02-11T10:09:50.780Z,66.80
2023-02-11T10:12:38.974Z,67.20
2023-02-11T10:15:24.362Z,68.50
2023-02-11T10:18:52.894Z,66.70
2023-02-11T10:21:43.723Z,62.90
2023-02-11T10:24:14.125Z,62.30
2023-02-11T10:26:41.885Z,64.80
2023-02-11T10:29:38.371Z,63.90
2023-02-11T10:32:19.976Z,60.00
2023-02-11T10:34:47.704Z,61.60
2023-02-11T10:37:14.766Z,62.40
2023-02-11T10:39:42.260Z,62.40
2023-02-11T10:42:14.188Z,62.40
2023-02-11T10:45:06.246Z,60.40
2023-02-11T10:47:37.878Z,57.30
2023-02-11T10:50:29.659Z,62.10
2023-02-11T10:53:20.923Z,60.10
2023-02-11T10:55:54.984Z,60.50
2023-02-11T10:58:37.002Z,62.70
2023-02-11T11:01:12.964Z,62.70
2023-02-11T11:03:52.618Z,65.50
2023-02-11T11:06:34.600Z,62.00
2023-02-11T11:09:02.065Z,60.60
2023-02-11T11:11:28.987Z,64.10
2023-02-11T11:14:00.566Z,63.40
2023-02-11T11:16:35.231Z,61.40
2023-02-11T11:19:08.079Z,62.00
2023-02-11T11:21:43.091Z,59.20
2023-02-11T11:24:33.535Z,62.20
2023-02-11T11:27:04.180Z,58.30
2023-02-11T11:29:45.717Z,61.90
2023-02-11T11:32:28.740Z,58.90
2023-02-11T11:35:01.308Z,61.40
2023-02-11T11:37:32.208Z,62.30
2023-02-11T11:40:17.005Z,62.10
2023-02-11T11:42:44.080Z,59.70
2023-02-11T11:45:20.068Z,62.70
2023-02-11T11:48:00.505Z,62.20
2023-02-11T11:50:40.227Z,58.40
2023-02-11T11:53:41.101Z,61.00
2023-02-11T11:56:32.135Z,56.50
2023-02-11T11:59:02.285Z,56.60
2023-02-11T12:01:54.128Z,61.30
2023-02-11T12:05:29.362Z,61.00
2023-02-11T12:08:23.045Z,57.70
2023-02-11T12:11:33.854Z,57.80
2023-02-11T12:14:31.274Z,60.80
2023-02-11T12:17:16.062Z,56.70
2023-02-11T12:20:23.712Z,56.70
2023-02-11T12:23:30.127Z,56.40
2023-02-11T12:26:15.003Z,56.60
2023-02-11T12:28:50.693Z,62.30
2023-02-11T12:31:49.698Z,59.40
2023-02-11T12:34:49.681Z,62.20
2023-02-11T12:37:42.704Z,60.70
2023-02-11T12:40:18.314Z,59.00
2023-02-11T12:43:16.597Z,62.30
2023-02-11T12:46:31.373Z,56.50
2023-02-11T12:49:35.536Z,58.30
2023-02-11T12:52:43.248Z,57.00
2023-02-11T12:55:22.094Z,56.30
2023-02-11T12:57:52.050Z,58.10
2023-02-11T13:01:01.326Z,61.40
2023-02-11T13:03:41.662Z,55.60
2023-02-11T13:06:17.780Z,60.90
2023-02-11T13:08:58.969Z,59.80
2023-02-11T13:11:40.234Z,57.60
2023-02-11T13:14:17.101Z,58.10
2023-02-11T13:16:47.113Z,60.80
2023-02-11T13:19:13.980Z,60.30
2023-02-11T13:22:19.642Z,60.00
2023-02-11T13:25:25.455Z,55.00
2023-02-11T13:28:23.301Z,59.10
2023-02-11T13:31:01.771Z,55.90
2023-02-11T13:33:45.932Z,59.20
2023-02-11T13:36:17.613Z,55.80
2023-02-11T13:39:01.960Z,59.00
2023-02-11T13:41:41.300Z,57.80
2023-02-11T13:44:11.065Z,58.10
2023-02-11T13:47:04.907Z,59.30
2023-02-11T13:49:42.252Z,54.90
2023-02-11T13:52:39.182Z,60.00
2023-02-11T13:55:22.382Z,55.60
2023-02-11T13:58:07.422Z,58.20
2023-02-11T14:00:34.201Z,54.90
2023-02-11T14:03:31.798Z,60.10
2023-02-11T14:06:41.324Z,55.60
2023-02-11T14:09:14.197Z,54.80
2023-02-11T14:11:57.927Z,59.60
2023-02-11T14:14:28.414Z,58.00
2023-02-11T14:17:07.083Z,57.50
2023-02-11T14:19:41.233Z,56.10
2023-02-11T14:22:23.731Z,58.10
2023-02-11T14:25:00.721Z,57.60
2023-02-11T14:27:54.483Z,55.90
2023-02-11T14:30:50.371Z,54.90
2023-02-11T14:33:47.419Z,55.90
2023-02-11T14:36:36.817Z,55.10
2023-02-11T14:39:21.855Z,58.90
2023-02-11T14:41:51.133Z,54.90
2023-02-11T14:44:25.175Z,58.00
2023-02-11T14:46:54.530Z,58.00
2023-02-11T14:49:27.092Z,57.50
2023-02-11T14:52:19.552Z,57.60
2023-02-11T14:54:51.177Z,56.60
2023-02-11T14:57:20.670Z,57.10
2023-02-11T15:00:05.623Z,57.60
2023-02-11T15:02:38.590Z,53.50
2023-02-11T15:05:28.956Z,56.60
2023-02-11T15:08:01.729Z,53.40
2023-02-11T15:10:43.018Z,57.60
2023-02-11T15:13:22.482Z,56.30
2023-02-11T15:15:55.577Z,55.40
2023-02-11T15:18:29.763Z,56.90
2023-02-11T15:20:59.034Z,57.70
2023-02-11T15:23:29.879Z,57.90
2023-02-11T15:25:56.742Z,57.20
2023-02-11T15:28:31.358Z,55.20
2023-02-11T15:31:24.590Z,58.60
2023-02-11T15:33:52.702Z,56.80
2023-02-11T15:36:28.330Z,58.80
2023-02-11T15:39:41.254Z,58.20
2023-02-11T15:42:21.650Z,53.70
2023-02-11T15:45:08.392Z,54.40
2023-02-11T15:47:36.283Z,58.90
2023-02-11T15:50:03.672Z,58.90
2023-02-11T15:52:31.784Z,58.70
2023-02-11T15:55:02.392Z,58.40
2023-02-11T15:57:29.864Z,57.80
2023-02-11T15:59:58.697Z,58.40
2023-02-11T16:02:36.792Z,58.30
2023-02-11T16:05:08.745Z,55.30
2023-02-11T16:07:43.010Z,57.70
2023-02-11T16:10:33.327Z,56.80
2023-02-11T16:13:18.406Z,54.10
2023-02-11T16:15:50.836Z,57.60
2023-02-11T16:18:39.297Z,58.60
2023-02-11T16:21:16.532Z,56.10
2023-02-11T16:23:50.845Z,58.70
2023-02-11T16:26:43.095Z,59.00
2023-02-11T16:29:17.034Z,55.50
2023-02-11T16:31:48.657Z,57.60
2023-02-11T16:34:23.580Z,57.70
2023-02-11T16:36:52.043Z,58.70
2023-02-11T16:39:23.600Z,59.30
2023-02-11T16:41:52.074Z,59.10
2023-02-11T16:44:19.112Z,59.10
2023-02-11T16:46:46.234Z,59.30
2023-02-11T16:49:31.270Z,59.40
2023-02-11T16:52:02.372Z,57.60
2023-02-11T16:54:30.306Z,59.10
2023-02-11T16:56:58.050Z,59.50
2023-02-11T16:59:25.037Z,59.60
2023-02-11T17:01:54.759Z,59.70
2023-02-11T17:04:30.621Z,59.40
2023-02-11T17:06:58.696Z,58.00
2023-02-11T17:09:30.510Z,59.90
2023-02-11T17:11:57.898Z,59.50
2023-02-11T17:14:24.830Z,59.90
2023-02-11T17:16:52.039Z,59.70
2023-02-11T17:19:21.810Z,59.70
2023-02-11T17:21:52.488Z,59.30
2023-02-11T17:24:22.080Z,59.50
2023-02-11T17:26:49.625Z,59.70
2023-02-11T17:29:21.934Z,59.90
2023-02-11T17:31:49.784Z,59.40
2023-02-11T17:34:17.920Z,60.00
2023-02-11T17:36:45.078Z,60.20
2023-02-11T17:39:12.150Z,60.30
2023-02-11T17:41:40.456Z,60.50
2023-02-11T17:44:10.471Z,60.40
2023-02-11T17:46:37.287Z,60.60
2023-02-11T17:49:04.997Z,60.90
2023-02-11T17:51:38.475Z,60.70
2023-02-11T17:54:16.830Z,60.40
2023-02-11T17:56:45.073Z,59.40
2023-02-11T17:59:13.562Z,60.90
2023-02-11T18:01:42.775Z,60.80
2023-02-11T18:04:18.350Z,60.80
2023-02-11T18:06:45.954Z,60.60
2023-02-11T18:09:13.095Z,61.20
2023-02-11T18:11:40.869Z,61.20
2023-02-11T18:14:09.076Z,61.20
2023-02-11T18:16:38.994Z,61.20
2023-02-11T18:19:07.553Z,61.30
2023-02-11T18:21:34.877Z,61.50
2023-02-11T18:24:06.532Z,61.60
2023-02-11T18:26:35.033Z,61.70
2023-02-11T18:29:03.795Z,61.70
2023-02-11T18:31:30.989Z,61.70
2023-02-11T18:33:58.121Z,61.80
2023-02-11T18:36:25.044Z,61.70
2023-02-11T18:38:53.662Z,61.60
2023-02-11T18:41:21.516Z,61.60
2023-02-11T18:43:48.575Z,61.50
2023-02-11T18:46:16.754Z,61.70
2023-02-11T18:48:45.249Z,61.60
2023-02-11T18:51:21.067Z,61.50
2023-02-11T18:53:48.037Z,61.30
2023-02-11T18:56:20.663Z,61.50
2023-02-11T18:58:48.893Z,61.10
2023-02-11T19:01:24.538Z,61.40
2023-02-11T19:03:52.695Z,61.10
2023-02-11T19:06:25.406Z,61.30
2023-02-11T19:08:56.905Z,61.10
2023-02-11T19:11:45.449Z,61.50
2023-02-11T19:14:13.993Z,61.60
2023-02-11T19:16:44.009Z,61.70
2023-02-11T19:19:11.021Z,61.60
2023-02-11T19:21:38.093Z,61.90
2023-02-11T19:24:09.491Z,62.00
2023-02-11T19:26:37.271Z,61.20
2023-02-11T19:29:05.958Z,62.00
2023-02-11T19:31:33.271Z,62.10
2023-02-11T19:34:02.260Z,62.20
2023-02-11T19:36:30.075Z,62.30
2023-02-11T19:39:00.973Z,62.50
2023-02-11T19:41:29.459Z,62.20
2023-02-11T19:43:56.815Z,62.70
2023-02-11T19:46:26.167Z,62.70
2023-02-11T19:48:54.715Z,62.70
2023-02-11T19:51:22.676Z,62.60
2023-02-11T19:53:51.176Z,62.70
2023-02-11T19:56:20.736Z,62.70
2023-02-11T19:58:48.251Z,62.80
2023-02-11T20:01:29.116Z,62.80
2023-02-11T20:03:57.463Z,61.30
2023-02-11T20:06:28.568Z,62.70
2023-02-11T20:09:01.138Z,62.40
2023-02-11T20:11:31.004Z,62.70
2023-02-11T20:13:58.626Z,62.90
2023-02-11T20:16:45.116Z,63.00
2023-02-11T20:19:18.370Z,63.00
2023-02-11T20:21:48.223Z,63.30
2023-02-11T20:24:17.950Z,63.30
2023-02-11T20:26:48.057Z,63.40
2023-02-11T20:29:16.954Z,63.50
2023-02-11T20:31:44.420Z,63.50
2023-02-11T20:34:12.484Z,63.50
2023-02-11T20:36:40.647Z,63.50
2023-02-11T20:39:08.188Z,63.40
2023-02-11T20:41:39.870Z,63.30
2023-02-11T20:44:10.455Z,63.20
2023-02-11T20:46:41.414Z,63.10
2023-02-11T20:49:15.756Z,63.00
2023-02-11T20:51:43.429Z,62.80
2023-02-11T20:54:19.623Z,63.00
2023-02-11T20:56:48.564Z,61.70
2023-02-11T20:59:17.550Z,63.20
2023-02-11T21:01:53.567Z,63.20
2023-02-11T21:04:28.125Z,62.90
2023-02-11T21:06:59.777Z,63.10
2023-02-11T21:09:31.540Z,63.10
2023-02-11T21:11:59.408Z,63.10
2023-02-11T21:14:29.589Z,63.50
2023-02-11T21:16:57.498Z,63.30
2023-02-11T21:19:24.898Z,63.30
2023-02-11T21:21:51.909Z,63.30
2023-02-11T21:24:18.903Z,63.30
2023-02-11T21:26:45.750Z,63.40
2023-02-11T21:29:12.633Z,63.30
2023-02-11T21:31:40.378Z,63.30
2023-02-11T21:34:07.690Z,63.20
2023-02-11T21:36:34.660Z,63.20
2023-02-11T21:39:03.752Z,63.10
2023-02-11T21:41:30.682Z,63.00
2023-02-11T21:43:57.737Z,62.90
2023-02-11T21:46:24.979Z,62.90
2023-02-11T21:48:52.246Z,62.80
2023-02-11T21:51:23.373Z,62.80
2023-02-11T21:53:57.118Z,62.60
2023-02-11T21:56:26.307Z,61.80
2023-02-11T21:58:55.968Z,62.80
2023-02-11T22:01:30.174Z,62.70
2023-02-11T22:03:59.170Z,62.60
2023-02-11T22:06:33.111Z,62.80
2023-02-11T22:09:07.241Z,62.60
2023-02-11T22:11:34.569Z,62.00
2023-02-11T22:14:01.989Z,63.00
2023-02-11T22:16:29.995Z,62.90
2023-02-11T22:18:58.680Z,62.90
2023-02-11T22:21:26.366Z,62.80
2023-02-11T22:23:55.620Z,62.80
2023-02-11T22:26:25.783Z,62.60
2023-02-11T22:28:53.642Z,62.70
2023-02-11T22:31:24.592Z,62.80
2023-02-11T22:33:51.977Z,62.70
2023-02-11T22:36:23.745Z,63.00
2023-02-11T22:38:51.308Z,62.80
2023-02-11T22:41:19.788Z,63.20
2023-02-11T22:43:47.102Z,63.10
2023-02-11T22:46:17.412Z,63.30
2023-02-11T22:48:44.871Z,63.00
2023-02-11T22:51:24.337Z,63.40
2023-02-11T22:53:56.708Z,61.90
2023-02-11T22:56:24.921Z,62.50
2023-02-11T22:58:53.629Z,63.30
2023-02-11T23:01:20.758Z,63.30
2023-02-11T23:03:47.620Z,63.30
2023-02-11T23:06:15.115Z,63.40
2023-02-11T23:08:45.427Z,63.50
2023-02-11T23:11:19.244Z,63.50
2023-02-11T23:13:49.091Z,63.30
2023-02-11T23:16:30.740Z,63.40
2023-02-11T23:19:02.031Z,63.30
2023-02-11T23:21:33.445Z,63.20
2023-02-11T23:24:05.134Z,63.20
2023-02-11T23:26:32.301Z,63.30
2023-02-11T23:29:00.335Z,63.60
2023-02-11T23:31:34.506Z,63.50
2023-02-11T23:34:01.565Z,62.60
2023-02-11T23:36:29.084Z,63.50
2023-02-11T23:38:56.206Z,63.50
2023-02-11T23:41:23.890Z,63.40
2023-02-11T23:43:56.650Z,63.50
2023-02-11T23:46:27.913Z,62.70
2023-02-11T23:48:55.439Z,63.40
2023-02-11T23:51:23.751Z,63.40
2023-02-11T23:53:54.070Z,63.40
2023-02-11T23:56:26.865Z,63.30
2023-02-11T23:58:57.168Z,63.50
